sensor_id;sensor_type;location;lat;lon;timestamp;P1;durP1;ratioP1;P2;durP2;ratioP2
72720;SDS011;60835;50.974;10.322;2022-10-16T00:01:52;2.75;;;0.70;;
72720;SDS011;60835;50.974;10.322;2022-10-16T00:04:19;0.80;;;0.65;;
72720;SDS011;60835;50.974;10.322;2022-10-16T00:06:45;2.58;;;0.95;;
72720;SDS011;60835;50.974;10.322;2022-10-16T00:09:13;1.23;;;0.80;;
72720;SDS011;60835;50.974;10.322;2022-10-16T00:11:39;2.88;;;0.90;;
72720;SDS011;60835;50.974;10.322;2022-10-16T00:14:08;3.88;;;0.85;;
72720;SDS011;60835;50.974;10.322;2022-10-16T00:16:37;2.63;;;1.10;;
72720;SDS011;60835;50.974;10.322;2022-10-16T00:19:04;1.77;;;1.10;;
72720;SDS011;60835;50.974;10.322;2022-10-16T00:21:31;1.00;;;0.80;;
72720;SDS011;60835;50.974;10.322;2022-10-16T00:24:03;2.47;;;0.90;;
72720;SDS011;60835;50.974;10.322;2022-10-16T00:26:35;4.55;;;1.48;;
72720;SDS011;60835;50.974;10.322;2022-10-16T00:29:02;0.73;;;0.60;;
72720;SDS011;60835;50.974;10.322;2022-10-16T00:31:29;3.45;;;0.95;;
72720;SDS011;60835;50.974;10.322;2022-10-16T00:33:56;1.30;;;0.70;;
72720;SDS011;60835;50.974;10.322;2022-10-16T00:36:23;5.07;;;0.80;;
72720;SDS011;60835;50.974;10.322;2022-10-16T00:38:51;0.82;;;0.65;;
72720;SDS011;60835;50.974;10.322;2022-10-16T00:41:21;1.73;;;1.17;;
72720;SDS011;60835;50.974;10.322;2022-10-16T00:43:58;0.93;;;0.60;;
72720;SDS011;60835;50.974;10.322;2022-10-16T00:49:03;3.85;;;0.77;;
72720;SDS011;60835;50.974;10.322;2022-10-16T00:51:35;1.80;;;0.88;;
72720;SDS011;60835;50.974;10.322;2022-10-16T00:54:16;1.67;;;0.73;;
72720;SDS011;60835;50.974;10.322;2022-10-16T00:56:46;0.50;;;0.50;;
72720;SDS011;60835;50.974;10.322;2022-10-16T00:59:18;4.38;;;0.60;;
72720;SDS011;60835;50.974;10.322;2022-10-16T01:01:48;1.85;;;0.82;;
72720;SDS011;60835;50.974;10.322;2022-10-16T01:04:15;5.82;;;0.90;;
72720;SDS011;60835;50.974;10.322;2022-10-16T01:09:22;2.15;;;0.80;;
72720;SDS011;60835;50.974;10.322;2022-10-16T01:14:43;2.03;;;0.70;;
72720;SDS011;60835;50.974;10.322;2022-10-16T01:17:18;1.65;;;0.90;;
72720;SDS011;60835;50.974;10.322;2022-10-16T01:20:01;2.15;;;1.08;;
72720;SDS011;60835;50.974;10.322;2022-10-16T01:22:57;2.73;;;0.90;;
72720;SDS011;60835;50.974;10.322;2022-10-16T01:28:41;2.38;;;0.80;;
72720;SDS011;60835;50.974;10.322;2022-10-16T01:31:17;5.32;;;0.80;;
72720;SDS011;60835;50.974;10.322;2022-10-16T01:33:47;1.48;;;0.70;;
72720;SDS011;60835;50.974;10.322;2022-10-16T01:36:24;1.95;;;0.60;;
72720;SDS011;60835;50.974;10.322;2022-10-16T01:38:56;1.85;;;0.82;;
72720;SDS011;60835;50.974;10.322;2022-10-16T01:41:31;2.53;;;0.68;;
72720;SDS011;60835;50.974;10.322;2022-10-16T01:44:03;2.65;;;1.20;;
72720;SDS011;60835;50.974;10.322;2022-10-16T01:46:35;6.00;;;0.80;;
72720;SDS011;60835;50.974;10.322;2022-10-16T01:49:05;0.95;;;0.70;;
72720;SDS011;60835;50.974;10.322;2022-10-16T01:51:32;1.52;;;1.00;;
72720;SDS011;60835;50.974;10.322;2022-10-16T01:54:01;2.50;;;0.77;;
72720;SDS011;60835;50.974;10.322;2022-10-16T01:56:29;2.67;;;0.90;;
72720;SDS011;60835;50.974;10.322;2022-10-16T01:59:30;1.10;;;1.00;;
72720;SDS011;60835;50.974;10.322;2022-10-16T02:01:55;1.30;;;0.65;;
72720;SDS011;60835;50.974;10.322;2022-10-16T02:04:29;1.27;;;0.93;;
72720;SDS011;60835;50.974;10.322;2022-10-16T02:09:25;1.95;;;0.52;;
72720;SDS011;60835;50.974;10.322;2022-10-16T02:11:53;5.47;;;0.73;;
72720;SDS011;60835;50.974;10.322;2022-10-16T02:14:22;1.17;;;0.70;;
72720;SDS011;60835;50.974;10.322;2022-10-16T02:16:50;1.35;;;0.85;;
72720;SDS011;60835;50.974;10.322;2022-10-16T02:19:17;0.88;;;0.70;;
72720;SDS011;60835;50.974;10.322;2022-10-16T02:21:50;2.35;;;0.60;;
72720;SDS011;60835;50.974;10.322;2022-10-16T02:24:24;0.98;;;0.70;;
72720;SDS011;60835;50.974;10.322;2022-10-16T02:29:36;5.13;;;0.73;;
72720;SDS011;60835;50.974;10.322;2022-10-16T02:32:07;1.83;;;0.88;;
72720;SDS011;60835;50.974;10.322;2022-10-16T02:34:36;3.28;;;0.95;;
72720;SDS011;60835;50.974;10.322;2022-10-16T02:37:04;2.53;;;0.63;;
72720;SDS011;60835;50.974;10.322;2022-10-16T02:39:31;2.33;;;0.85;;
72720;SDS011;60835;50.974;10.322;2022-10-16T02:41:58;0.90;;;0.60;;
72720;SDS011;60835;50.974;10.322;2022-10-16T02:44:25;3.08;;;0.70;;
72720;SDS011;60835;50.974;10.322;2022-10-16T02:46:51;3.13;;;0.68;;
72720;SDS011;60835;50.974;10.322;2022-10-16T02:49:18;0.60;;;0.60;;
72720;SDS011;60835;50.974;10.322;2022-10-16T02:51:44;3.03;;;0.80;;
72720;SDS011;60835;50.974;10.322;2022-10-16T02:54:11;0.77;;;0.55;;
72720;SDS011;60835;50.974;10.322;2022-10-16T02:56:37;1.23;;;0.63;;
72720;SDS011;60835;50.974;10.322;2022-10-16T02:59:05;0.85;;;0.80;;
72720;SDS011;60835;50.974;10.322;2022-10-16T03:01:31;0.77;;;0.70;;
72720;SDS011;60835;50.974;10.322;2022-10-16T03:03:58;3.22;;;0.68;;
72720;SDS011;60835;50.974;10.322;2022-10-16T03:06:24;0.80;;;0.77;;
72720;SDS011;60835;50.974;10.322;2022-10-16T03:08:51;1.55;;;0.88;;
72720;SDS011;60835;50.974;10.322;2022-10-16T03:11:17;0.90;;;0.82;;
72720;SDS011;60835;50.974;10.322;2022-10-16T03:13:44;0.70;;;0.70;;
72720;SDS011;60835;50.974;10.322;2022-10-16T03:16:10;1.17;;;0.70;;
72720;SDS011;60835;50.974;10.322;2022-10-16T03:18:36;2.45;;;0.88;;
72720;SDS011;60835;50.974;10.322;2022-10-16T03:21:03;1.13;;;0.82;;
72720;SDS011;60835;50.974;10.322;2022-10-16T03:23:29;3.55;;;0.75;;
72720;SDS011;60835;50.974;10.322;2022-10-16T03:25:56;0.80;;;0.80;;
72720;SDS011;60835;50.974;10.322;2022-10-16T03:28:22;1.08;;;0.70;;
72720;SDS011;60835;50.974;10.322;2022-10-16T03:30:49;0.60;;;0.50;;
72720;SDS011;60835;50.974;10.322;2022-10-16T03:33:15;2.10;;;1.05;;
72720;SDS011;60835;50.974;10.322;2022-10-16T03:35:42;4.10;;;0.70;;
72720;SDS011;60835;50.974;10.322;2022-10-16T03:38:08;1.95;;;0.70;;
72720;SDS011;60835;50.974;10.322;2022-10-16T03:40:35;1.83;;;0.80;;
72720;SDS011;60835;50.974;10.322;2022-10-16T03:43:01;1.38;;;0.68;;
72720;SDS011;60835;50.974;10.322;2022-10-16T03:45:28;0.85;;;0.70;;
72720;SDS011;60835;50.974;10.322;2022-10-16T03:47:54;1.17;;;0.75;;
72720;SDS011;60835;50.974;10.322;2022-10-16T03:50:21;4.05;;;0.80;;
72720;SDS011;60835;50.974;10.322;2022-10-16T03:52:47;1.05;;;0.80;;
72720;SDS011;60835;50.974;10.322;2022-10-16T03:55:14;1.95;;;0.70;;
72720;SDS011;60835;50.974;10.322;2022-10-16T03:57:40;1.85;;;0.68;;
72720;SDS011;60835;50.974;10.322;2022-10-16T04:00:07;1.65;;;0.68;;
72720;SDS011;60835;50.974;10.322;2022-10-16T04:02:33;0.80;;;0.80;;
72720;SDS011;60835;50.974;10.322;2022-10-16T04:05:00;2.42;;;0.70;;
72720;SDS011;60835;50.974;10.322;2022-10-16T04:07:26;1.08;;;0.80;;
72720;SDS011;60835;50.974;10.322;2022-10-16T04:09:53;2.70;;;1.17;;
72720;SDS011;60835;50.974;10.322;2022-10-16T04:12:20;2.40;;;0.70;;
72720;SDS011;60835;50.974;10.322;2022-10-16T04:14:46;2.35;;;0.57;;
72720;SDS011;60835;50.974;10.322;2022-10-16T04:17:13;0.80;;;0.70;;
72720;SDS011;60835;50.974;10.322;2022-10-16T04:19:39;1.17;;;0.82;;
72720;SDS011;60835;50.974;10.322;2022-10-16T04:22:05;0.65;;;0.65;;
72720;SDS011;60835;50.974;10.322;2022-10-16T04:24:32;0.98;;;0.77;;
72720;SDS011;60835;50.974;10.322;2022-10-16T04:26:58;2.00;;;0.80;;
72720;SDS011;60835;50.974;10.322;2022-10-16T04:29:25;1.60;;;0.80;;
72720;SDS011;60835;50.974;10.322;2022-10-16T04:31:51;1.50;;;0.80;;
72720;SDS011;60835;50.974;10.322;2022-10-16T04:34:18;2.10;;;0.70;;
72720;SDS011;60835;50.974;10.322;2022-10-16T04:36:46;3.85;;;0.70;;
72720;SDS011;60835;50.974;10.322;2022-10-16T04:39:14;1.38;;;0.55;;
72720;SDS011;60835;50.974;10.322;2022-10-16T04:41:41;10.52;;;1.02;;
72720;SDS011;60835;50.974;10.322;2022-10-16T04:44:07;0.70;;;0.70;;
72720;SDS011;60835;50.974;10.322;2022-10-16T04:46:34;0.95;;;0.82;;
72720;SDS011;60835;50.974;10.322;2022-10-16T04:49:00;3.08;;;0.73;;
72720;SDS011;60835;50.974;10.322;2022-10-16T04:51:27;2.80;;;1.00;;
72720;SDS011;60835;50.974;10.322;2022-10-16T04:53:54;1.85;;;0.70;;
72720;SDS011;60835;50.974;10.322;2022-10-16T04:56:21;6.18;;;0.80;;
72720;SDS011;60835;50.974;10.322;2022-10-16T04:58:48;1.80;;;0.75;;
72720;SDS011;60835;50.974;10.322;2022-10-16T05:01:14;1.30;;;0.80;;
72720;SDS011;60835;50.974;10.322;2022-10-16T05:03:40;4.65;;;0.93;;
72720;SDS011;60835;50.974;10.322;2022-10-16T05:06:07;1.75;;;0.90;;
72720;SDS011;60835;50.974;10.322;2022-10-16T05:08:33;4.30;;;0.93;;
72720;SDS011;60835;50.974;10.322;2022-10-16T05:11:00;1.00;;;0.90;;
72720;SDS011;60835;50.974;10.322;2022-10-16T05:13:27;0.70;;;0.70;;
72720;SDS011;60835;50.974;10.322;2022-10-16T05:15:54;2.35;;;0.98;;
72720;SDS011;60835;50.974;10.322;2022-10-16T05:18:20;3.78;;;0.93;;
72720;SDS011;60835;50.974;10.322;2022-10-16T05:20:46;6.82;;;1.50;;
72720;SDS011;60835;50.974;10.322;2022-10-16T05:23:13;4.15;;;1.02;;
72720;SDS011;60835;50.974;10.322;2022-10-16T05:25:39;0.85;;;0.80;;
72720;SDS011;60835;50.974;10.322;2022-10-16T05:28:06;2.20;;;0.80;;
72720;SDS011;60835;50.974;10.322;2022-10-16T05:30:32;0.88;;;0.88;;
72720;SDS011;60835;50.974;10.322;2022-10-16T05:32:59;2.50;;;0.90;;
72720;SDS011;60835;50.974;10.322;2022-10-16T05:35:25;2.60;;;0.90;;
72720;SDS011;60835;50.974;10.322;2022-10-16T05:37:52;4.22;;;1.38;;
72720;SDS011;60835;50.974;10.322;2022-10-16T05:40:18;4.47;;;0.88;;
72720;SDS011;60835;50.974;10.322;2022-10-16T05:42:45;2.00;;;0.90;;
72720;SDS011;60835;50.974;10.322;2022-10-16T05:45:11;1.00;;;0.95;;
72720;SDS011;60835;50.974;10.322;2022-10-16T05:47:38;0.80;;;0.80;;
72720;SDS011;60835;50.974;10.322;2022-10-16T05:50:05;4.80;;;1.42;;
72720;SDS011;60835;50.974;10.322;2022-10-16T05:52:32;1.67;;;0.80;;
72720;SDS011;60835;50.974;10.322;2022-10-16T05:54:58;1.42;;;1.00;;
72720;SDS011;60835;50.974;10.322;2022-10-16T05:57:25;4.85;;;2.10;;
72720;SDS011;60835;50.974;10.322;2022-10-16T05:59:52;1.02;;;0.60;;
72720;SDS011;60835;50.974;10.322;2022-10-16T06:02:18;1.55;;;0.60;;
72720;SDS011;60835;50.974;10.322;2022-10-16T06:04:45;17.30;;;1.45;;
72720;SDS011;60835;50.974;10.322;2022-10-16T06:07:11;1.40;;;1.00;;
72720;SDS011;60835;50.974;10.322;2022-10-16T06:09:38;1.58;;;0.75;;
72720;SDS011;60835;50.974;10.322;2022-10-16T06:12:05;1.20;;;0.85;;
72720;SDS011;60835;50.974;10.322;2022-10-16T06:14:31;0.90;;;0.82;;
72720;SDS011;60835;50.974;10.322;2022-10-16T06:16:58;3.35;;;0.95;;
72720;SDS011;60835;50.974;10.322;2022-10-16T06:19:24;1.20;;;0.90;;
72720;SDS011;60835;50.974;10.322;2022-10-16T06:21:51;1.90;;;0.82;;
72720;SDS011;60835;50.974;10.322;2022-10-16T06:24:17;1.08;;;0.80;;
72720;SDS011;60835;50.974;10.322;2022-10-16T06:26:44;1.58;;;0.88;;
72720;SDS011;60835;50.974;10.322;2022-10-16T06:29:10;1.45;;;0.75;;
72720;SDS011;60835;50.974;10.322;2022-10-16T06:31:37;3.72;;;0.68;;
72720;SDS011;60835;50.974;10.322;2022-10-16T06:34:03;1.63;;;0.73;;
72720;SDS011;60835;50.974;10.322;2022-10-16T06:36:32;1.90;;;0.70;;
72720;SDS011;60835;50.974;10.322;2022-10-16T06:38:58;1.50;;;1.00;;
72720;SDS011;60835;50.974;10.322;2022-10-16T06:41:25;1.10;;;0.90;;
72720;SDS011;60835;50.974;10.322;2022-10-16T06:43:51;0.65;;;0.65;;
72720;SDS011;60835;50.974;10.322;2022-10-16T06:46:20;1.08;;;0.40;;
72720;SDS011;60835;50.974;10.322;2022-10-16T06:48:47;1.42;;;0.57;;
72720;SDS011;60835;50.974;10.322;2022-10-16T06:51:15;4.47;;;1.02;;
72720;SDS011;60835;50.974;10.322;2022-10-16T06:53:47;0.85;;;0.65;;
72720;SDS011;60835;50.974;10.322;2022-10-16T06:56:32;1.25;;;1.00;;
72720;SDS011;60835;50.974;10.322;2022-10-16T06:58:59;1.50;;;0.50;;
72720;SDS011;60835;50.974;10.322;2022-10-16T07:01:26;2.92;;;0.47;;
72720;SDS011;60835;50.974;10.322;2022-10-16T07:03:53;1.25;;;0.60;;
72720;SDS011;60835;50.974;10.322;2022-10-16T07:06:21;0.90;;;0.60;;
72720;SDS011;60835;50.974;10.322;2022-10-16T07:08:48;1.33;;;0.70;;
72720;SDS011;60835;50.974;10.322;2022-10-16T07:11:16;5.78;;;1.75;;
72720;SDS011;60835;50.974;10.322;2022-10-16T07:13:45;0.32;;;0.32;;
72720;SDS011;60835;50.974;10.322;2022-10-16T07:16:21;1.00;;;0.50;;
72720;SDS011;60835;50.974;10.322;2022-10-16T07:18:53;1.70;;;0.57;;
72720;SDS011;60835;50.974;10.322;2022-10-16T07:21:25;0.40;;;0.40;;
72720;SDS011;60835;50.974;10.322;2022-10-16T07:23:54;0.40;;;0.40;;
72720;SDS011;60835;50.974;10.322;2022-10-16T07:26:23;0.22;;;0.22;;
72720;SDS011;60835;50.974;10.322;2022-10-16T07:28:50;0.80;;;0.60;;
72720;SDS011;60835;50.974;10.322;2022-10-16T07:31:17;4.18;;;0.88;;
72720;SDS011;60835;50.974;10.322;2022-10-16T07:33:45;1.73;;;0.60;;
72720;SDS011;60835;50.974;10.322;2022-10-16T07:36:14;0.75;;;0.70;;
72720;SDS011;60835;50.974;10.322;2022-10-16T07:38:42;1.38;;;0.60;;
72720;SDS011;60835;50.974;10.322;2022-10-16T07:41:11;5.15;;;0.63;;
72720;SDS011;60835;50.974;10.322;2022-10-16T07:43:38;9.20;;;0.85;;
72720;SDS011;60835;50.974;10.322;2022-10-16T07:46:05;1.40;;;0.77;;
72720;SDS011;60835;50.974;10.322;2022-10-16T07:48:33;2.15;;;0.70;;
72720;SDS011;60835;50.974;10.322;2022-10-16T07:51:01;2.28;;;0.60;;
72720;SDS011;60835;50.974;10.322;2022-10-16T07:53:29;2.67;;;0.60;;
72720;SDS011;60835;50.974;10.322;2022-10-16T07:55:59;1.83;;;0.57;;
72720;SDS011;60835;50.974;10.322;2022-10-16T07:58:27;1.33;;;0.50;;
72720;SDS011;60835;50.974;10.322;2022-10-16T08:00:54;2.47;;;0.55;;
72720;SDS011;60835;50.974;10.322;2022-10-16T08:03:22;1.77;;;0.77;;
72720;SDS011;60835;50.974;10.322;2022-10-16T08:05:49;0.40;;;0.40;;
72720;SDS011;60835;50.974;10.322;2022-10-16T08:08:16;4.13;;;1.40;;
72720;SDS011;60835;50.974;10.322;2022-10-16T08:10:44;1.23;;;1.00;;
72720;SDS011;60835;50.974;10.322;2022-10-16T08:13:11;1.75;;;0.60;;
72720;SDS011;60835;50.974;10.322;2022-10-16T08:15:41;0.65;;;0.50;;
72720;SDS011;60835;50.974;10.322;2022-10-16T08:18:09;0.47;;;0.47;;
72720;SDS011;60835;50.974;10.322;2022-10-16T08:20:36;0.70;;;0.50;;
72720;SDS011;60835;50.974;10.322;2022-10-16T08:23:02;0.57;;;0.57;;
72720;SDS011;60835;50.974;10.322;2022-10-16T08:25:29;0.93;;;0.70;;
72720;SDS011;60835;50.974;10.322;2022-10-16T08:27:56;2.55;;;0.82;;
72720;SDS011;60835;50.974;10.322;2022-10-16T08:30:22;2.67;;;0.90;;
72720;SDS011;60835;50.974;10.322;2022-10-16T08:32:50;1.58;;;0.50;;
72720;SDS011;60835;50.974;10.322;2022-10-16T08:35:16;0.60;;;0.60;;
72720;SDS011;60835;50.974;10.322;2022-10-16T08:37:43;1.02;;;0.50;;
72720;SDS011;60835;50.974;10.322;2022-10-16T08:40:18;2.67;;;0.80;;
72720;SDS011;60835;50.974;10.322;2022-10-16T08:42:51;0.70;;;0.50;;
72720;SDS011;60835;50.974;10.322;2022-10-16T08:45:25;3.55;;;0.80;;
72720;SDS011;60835;50.974;10.322;2022-10-16T08:48:06;2.70;;;0.70;;
72720;SDS011;60835;50.974;10.322;2022-10-16T08:50:43;0.63;;;0.63;;
72720;SDS011;60835;50.974;10.322;2022-10-16T08:53:14;2.45;;;0.60;;
72720;SDS011;60835;50.974;10.322;2022-10-16T08:55:51;1.15;;;0.63;;
72720;SDS011;60835;50.974;10.322;2022-10-16T08:58:22;1.25;;;0.77;;
72720;SDS011;60835;50.974;10.322;2022-10-16T09:00:56;2.13;;;0.77;;
72720;SDS011;60835;50.974;10.322;2022-10-16T09:06:13;1.13;;;0.75;;
72720;SDS011;60835;50.974;10.322;2022-10-16T09:22:39;1.23;;;0.70;;
72720;SDS011;60835;50.974;10.322;2022-10-16T09:25:11;3.92;;;1.42;;
72720;SDS011;60835;50.974;10.322;2022-10-16T09:27:40;2.10;;;1.10;;
72720;SDS011;60835;50.974;10.322;2022-10-16T09:30:14;3.03;;;1.00;;
72720;SDS011;60835;50.974;10.322;2022-10-16T09:32:43;2.60;;;0.80;;
72720;SDS011;60835;50.974;10.322;2022-10-16T09:35:13;1.63;;;0.80;;
72720;SDS011;60835;50.974;10.322;2022-10-16T09:37:43;3.10;;;1.08;;
72720;SDS011;60835;50.974;10.322;2022-10-16T09:40:12;1.42;;;0.85;;
72720;SDS011;60835;50.974;10.322;2022-10-16T09:42:50;2.55;;;1.00;;
72720;SDS011;60835;50.974;10.322;2022-10-16T09:45:37;2.10;;;0.82;;
72720;SDS011;60835;50.974;10.322;2022-10-16T09:48:11;1.27;;;0.98;;
72720;SDS011;60835;50.974;10.322;2022-10-16T09:50:39;1.85;;;1.00;;
72720;SDS011;60835;50.974;10.322;2022-10-16T09:53:08;1.20;;;0.75;;
72720;SDS011;60835;50.974;10.322;2022-10-16T09:55:47;2.85;;;1.00;;
72720;SDS011;60835;50.974;10.322;2022-10-16T09:58:15;1.70;;;1.30;;
72720;SDS011;60835;50.974;10.322;2022-10-16T10:00:42;2.92;;;1.27;;
72720;SDS011;60835;50.974;10.322;2022-10-16T10:03:30;5.82;;;1.10;;
72720;SDS011;60835;50.974;10.322;2022-10-16T10:06:07;1.73;;;0.93;;
72720;SDS011;60835;50.974;10.322;2022-10-16T10:08:53;1.30;;;1.10;;
72720;SDS011;60835;50.974;10.322;2022-10-16T10:14:27;1.60;;;0.82;;
72720;SDS011;60835;50.974;10.322;2022-10-16T10:17:08;5.30;;;0.90;;
72720;SDS011;60835;50.974;10.322;2022-10-16T10:22:31;1.15;;;0.80;;
72720;SDS011;60835;50.974;10.322;2022-10-16T10:25:12;1.02;;;0.95;;
72720;SDS011;60835;50.974;10.322;2022-10-16T10:30:57;1.63;;;1.23;;
72720;SDS011;60835;50.974;10.322;2022-10-16T10:33:47;0.98;;;0.90;;
72720;SDS011;60835;50.974;10.322;2022-10-16T10:38:56;1.98;;;0.95;;
72720;SDS011;60835;50.974;10.322;2022-10-16T10:46:40;2.35;;;0.80;;
72720;SDS011;60835;50.974;10.322;2022-10-16T10:49:17;0.67;;;0.67;;
72720;SDS011;60835;50.974;10.322;2022-10-16T10:52:02;1.90;;;0.50;;
72720;SDS011;60835;50.974;10.322;2022-10-16T11:06:06;1.55;;;1.00;;
72720;SDS011;60835;50.974;10.322;2022-10-16T11:08:41;2.25;;;1.45;;
72720;SDS011;60835;50.974;10.322;2022-10-16T11:11:25;0.60;;;0.60;;
72720;SDS011;60835;50.974;10.322;2022-10-16T11:16:53;1.73;;;0.60;;
72720;SDS011;60835;50.974;10.322;2022-10-16T11:22:37;1.08;;;0.50;;
72720;SDS011;60835;50.974;10.322;2022-10-16T11:25:16;2.05;;;0.85;;
72720;SDS011;60835;50.974;10.322;2022-10-16T11:27:44;2.35;;;0.50;;
72720;SDS011;60835;50.974;10.322;2022-10-16T11:30:24;0.47;;;0.47;;
72720;SDS011;60835;50.974;10.322;2022-10-16T11:35:39;3.13;;;0.60;;
72720;SDS011;60835;50.974;10.322;2022-10-16T11:38:39;0.70;;;0.70;;
72720;SDS011;60835;50.974;10.322;2022-10-16T11:41:15;3.60;;;0.93;;
72720;SDS011;60835;50.974;10.322;2022-10-16T11:46:50;2.15;;;0.82;;
72720;SDS011;60835;50.974;10.322;2022-10-16T11:49:44;1.45;;;0.80;;
72720;SDS011;60835;50.974;10.322;2022-10-16T11:52:19;1.30;;;0.60;;
72720;SDS011;60835;50.974;10.322;2022-10-16T11:54:53;0.60;;;0.60;;
72720;SDS011;60835;50.974;10.322;2022-10-16T11:57:32;2.28;;;0.70;;
72720;SDS011;60835;50.974;10.322;2022-10-16T12:00:08;17.13;;;1.25;;
72720;SDS011;60835;50.974;10.322;2022-10-16T12:02:55;1.50;;;1.00;;
72720;SDS011;60835;50.974;10.322;2022-10-16T12:05:25;0.80;;;0.80;;
72720;SDS011;60835;50.974;10.322;2022-10-16T12:08:11;0.77;;;0.77;;
72720;SDS011;60835;50.974;10.322;2022-10-16T12:10:40;0.95;;;0.60;;
72720;SDS011;60835;50.974;10.322;2022-10-16T12:18:38;0.50;;;0.50;;
72720;SDS011;60835;50.974;10.322;2022-10-16T12:21:10;0.95;;;0.90;;
72720;SDS011;60835;50.974;10.322;2022-10-16T12:23:53;3.85;;;1.00;;
72720;SDS011;60835;50.974;10.322;2022-10-16T12:26:39;1.07;;;0.50;;
72720;SDS011;60835;50.974;10.322;2022-10-16T12:31:54;2.92;;;0.70;;
72720;SDS011;60835;50.974;10.322;2022-10-16T12:36:53;0.77;;;0.60;;
72720;SDS011;60835;50.974;10.322;2022-10-16T12:39:24;2.38;;;0.70;;
72720;SDS011;60835;50.974;10.322;2022-10-16T12:42:01;1.42;;;0.80;;
72720;SDS011;60835;50.974;10.322;2022-10-16T12:44:45;1.45;;;0.70;;
72720;SDS011;60835;50.974;10.322;2022-10-16T12:47:19;0.98;;;0.60;;
72720;SDS011;60835;50.974;10.322;2022-10-16T12:50:23;0.65;;;0.50;;
72720;SDS011;60835;50.974;10.322;2022-10-16T12:52:49;2.05;;;1.10;;
72720;SDS011;60835;50.974;10.322;2022-10-16T12:55:16;2.50;;;0.70;;
72720;SDS011;60835;50.974;10.322;2022-10-16T13:03:54;3.05;;;1.77;;
72720;SDS011;60835;50.974;10.322;2022-10-16T13:09:07;3.90;;;0.63;;
72720;SDS011;60835;50.974;10.322;2022-10-16T13:28:22;0.88;;;0.65;;
72720;SDS011;60835;50.974;10.322;2022-10-16T13:30:57;3.88;;;1.67;;
72720;SDS011;60835;50.974;10.322;2022-10-16T13:36:03;2.72;;;1.05;;
72720;SDS011;60835;50.974;10.322;2022-10-16T13:38:31;0.80;;;0.80;;
72720;SDS011;60835;50.974;10.322;2022-10-16T13:41:11;5.72;;;2.65;;
72720;SDS011;60835;50.974;10.322;2022-10-16T13:43:45;2.22;;;0.70;;
72720;SDS011;60835;50.974;10.322;2022-10-16T13:46:18;2.08;;;1.55;;
72720;SDS011;60835;50.974;10.322;2022-10-16T13:48:59;1.75;;;0.80;;
72720;SDS011;60835;50.974;10.322;2022-10-16T13:51:28;2.63;;;0.70;;
72720;SDS011;60835;50.974;10.322;2022-10-16T13:53:55;1.92;;;0.93;;
72720;SDS011;60835;50.974;10.322;2022-10-16T13:56:26;1.80;;;1.13;;
72720;SDS011;60835;50.974;10.322;2022-10-16T13:59:02;1.10;;;1.00;;
72720;SDS011;60835;50.974;10.322;2022-10-16T14:01:34;6.40;;;2.40;;
72720;SDS011;60835;50.974;10.322;2022-10-16T14:04:10;3.50;;;2.15;;
72720;SDS011;60835;50.974;10.322;2022-10-16T14:06:45;3.08;;;1.85;;
72720;SDS011;60835;50.974;10.322;2022-10-16T14:09:33;1.02;;;0.85;;
72720;SDS011;60835;50.974;10.322;2022-10-16T14:12:02;2.25;;;1.65;;
72720;SDS011;60835;50.974;10.322;2022-10-16T14:14:41;5.78;;;3.15;;
72720;SDS011;60835;50.974;10.322;2022-10-16T14:17:18;1.33;;;0.93;;
72720;SDS011;60835;50.974;10.322;2022-10-16T14:19:48;1.48;;;1.17;;
72720;SDS011;60835;50.974;10.322;2022-10-16T14:24:57;0.77;;;0.60;;
72720;SDS011;60835;50.974;10.322;2022-10-16T14:27:34;1.20;;;1.10;;
72720;SDS011;60835;50.974;10.322;2022-10-16T14:30:20;7.82;;;4.68;;
72720;SDS011;60835;50.974;10.322;2022-10-16T14:33:01;1.65;;;1.00;;
72720;SDS011;60835;50.974;10.322;2022-10-16T14:38:01;0.90;;;0.90;;
72720;SDS011;60835;50.974;10.322;2022-10-16T14:40:30;1.90;;;1.23;;
72720;SDS011;60835;50.974;10.322;2022-10-16T14:42:59;2.38;;;0.93;;
72720;SDS011;60835;50.974;10.322;2022-10-16T14:45:28;1.88;;;1.13;;
72720;SDS011;60835;50.974;10.322;2022-10-16T14:47:59;1.63;;;1.45;;
72720;SDS011;60835;50.974;10.322;2022-10-16T14:50:28;2.75;;;1.42;;
72720;SDS011;60835;50.974;10.322;2022-10-16T14:52:55;2.03;;;1.35;;
72720;SDS011;60835;50.974;10.322;2022-10-16T14:55:22;1.88;;;1.50;;
72720;SDS011;60835;50.974;10.322;2022-10-16T14:57:49;2.08;;;1.60;;
72720;SDS011;60835;50.974;10.322;2022-10-16T15:00:21;4.88;;;1.70;;
72720;SDS011;60835;50.974;10.322;2022-10-16T15:02:49;1.20;;;1.10;;
72720;SDS011;60835;50.974;10.322;2022-10-16T15:05:21;1.92;;;1.30;;
72720;SDS011;60835;50.974;10.322;2022-10-16T15:07:49;2.33;;;1.40;;
72720;SDS011;60835;50.974;10.322;2022-10-16T15:10:17;1.60;;;1.50;;
72720;SDS011;60835;50.974;10.322;2022-10-16T15:12:44;2.65;;;1.80;;
72720;SDS011;60835;50.974;10.322;2022-10-16T15:17:49;2.13;;;1.65;;
72720;SDS011;60835;50.974;10.322;2022-10-16T15:20:23;3.45;;;2.70;;
72720;SDS011;60835;50.974;10.322;2022-10-16T15:22:50;2.67;;;1.60;;
72720;SDS011;60835;50.974;10.322;2022-10-16T15:28:05;1.70;;;1.60;;
72720;SDS011;60835;50.974;10.322;2022-10-16T15:30:33;3.22;;;1.50;;
72720;SDS011;60835;50.974;10.322;2022-10-16T15:32:59;3.53;;;1.90;;
72720;SDS011;60835;50.974;10.322;2022-10-16T15:35:26;1.35;;;1.23;;
72720;SDS011;60835;50.974;10.322;2022-10-16T15:37:53;1.58;;;1.33;;
72720;SDS011;60835;50.974;10.322;2022-10-16T15:40:20;11.23;;;3.90;;
72720;SDS011;60835;50.974;10.322;2022-10-16T15:42:47;8.98;;;4.45;;
72720;SDS011;60835;50.974;10.322;2022-10-16T15:45:14;2.33;;;2.08;;
72720;SDS011;60835;50.974;10.322;2022-10-16T15:47:42;1.83;;;1.55;;
72720;SDS011;60835;50.974;10.322;2022-10-16T15:50:11;3.03;;;2.10;;
72720;SDS011;60835;50.974;10.322;2022-10-16T15:52:40;2.58;;;2.15;;
72720;SDS011;60835;50.974;10.322;2022-10-16T15:55:08;2.33;;;1.90;;
72720;SDS011;60835;50.974;10.322;2022-10-16T15:57:36;7.47;;;2.97;;
72720;SDS011;60835;50.974;10.322;2022-10-16T16:00:09;6.13;;;3.55;;
72720;SDS011;60835;50.974;10.322;2022-10-16T16:02:41;5.20;;;2.78;;
72720;SDS011;60835;50.974;10.322;2022-10-16T16:05:09;6.25;;;3.38;;
72720;SDS011;60835;50.974;10.322;2022-10-16T16:07:37;5.28;;;3.42;;
72720;SDS011;60835;50.974;10.322;2022-10-16T16:10:05;4.05;;;2.25;;
72720;SDS011;60835;50.974;10.322;2022-10-16T16:12:34;8.82;;;4.95;;
72720;SDS011;60835;50.974;10.322;2022-10-16T16:15:01;7.95;;;3.45;;
72720;SDS011;60835;50.974;10.322;2022-10-16T16:17:31;25.58;;;11.18;;
72720;SDS011;60835;50.974;10.322;2022-10-16T16:19:58;7.35;;;4.32;;
72720;SDS011;60835;50.974;10.322;2022-10-16T16:22:25;9.85;;;5.78;;
72720;SDS011;60835;50.974;10.322;2022-10-16T16:24:52;10.65;;;5.13;;
72720;SDS011;60835;50.974;10.322;2022-10-16T16:27:18;11.10;;;4.30;;
72720;SDS011;60835;50.974;10.322;2022-10-16T16:29:46;5.75;;;3.38;;
72720;SDS011;60835;50.974;10.322;2022-10-16T16:32:13;11.10;;;3.65;;
72720;SDS011;60835;50.974;10.322;2022-10-16T16:34:40;9.07;;;3.40;;
72720;SDS011;60835;50.974;10.322;2022-10-16T16:37:07;6.20;;;3.90;;
72720;SDS011;60835;50.974;10.322;2022-10-16T16:39:34;7.82;;;5.35;;
72720;SDS011;60835;50.974;10.322;2022-10-16T16:42:00;18.20;;;5.75;;
72720;SDS011;60835;50.974;10.322;2022-10-16T16:44:29;7.18;;;4.25;;
72720;SDS011;60835;50.974;10.322;2022-10-16T16:46:55;9.15;;;5.93;;
72720;SDS011;60835;50.974;10.322;2022-10-16T16:49:22;9.32;;;5.32;;
72720;SDS011;60835;50.974;10.322;2022-10-16T16:51:48;9.40;;;6.47;;
72720;SDS011;60835;50.974;10.322;2022-10-16T16:54:15;19.75;;;6.75;;